sensor_id;sensor_type;location;lat;lon;timestamp;pressure;altitude;pressure_sealevel;temperature;humidity
10464;BME280;5279;42.048;24.638;2024-01-15T00:02:14;96978.19;;;0.28;75.89
10464;BME280;5279;42.048;24.638;2024-01-15T00:04:43;96971.13;;;0.30;75.36
10464;BME280;5279;42.048;24.638;2024-01-15T00:07:09;96973.75;;;0.30;76.52
10464;BME280;5279;42.048;24.638;2024-01-15T00:09:36;96981.03;;;0.11;77.99
10464;BME280;5279;42.048;24.638;2024-01-15T00:12:04;96975.63;;;0.14;76.26
10464;BME280;5279;42.048;24.638;2024-01-15T00:14:30;96973.34;;;0.09;75.77
10464;BME280;5279;42.048;24.638;2024-01-15T00:16:57;96976.28;;;0.17;75.59
10464;BME280;5279;42.048;24.638;2024-01-15T00:19:24;96972.50;;;0.09;75.49
10464;BME280;5279;42.048;24.638;2024-01-15T00:21:53;96959.66;;;-0.09;76.98
10464;BME280;5279;42.048;24.638;2024-01-15T00:24:20;96960.59;;;0.05;77.04
10464;BME280;5279;42.048;24.638;2024-01-15T00:26:47;96964.56;;;0.10;76.79
10464;BME280;5279;42.048;24.638;2024-01-15T00:29:14;96968.66;;;0.14;75.98
10464;BME280;5279;42.048;24.638;2024-01-15T00:31:43;96961.72;;;-0.14;78.39
10464;BME280;5279;42.048;24.638;2024-01-15T00:34:10;96959.28;;;-0.03;77.02
10464;BME280;5279;42.048;24.638;2024-01-15T00:36:37;96955.88;;;-0.17;78.57
10464;BME280;5279;42.048;24.638;2024-01-15T00:39:05;96951.69;;;-0.20;77.89
10464;BME280;5279;42.048;24.638;2024-01-15T00:41:31;96945.75;;;-0.22;78.37
10464;BME280;5279;42.048;24.638;2024-01-15T00:43:58;96956.53;;;-0.14;77.02
10464;BME280;5279;42.048;24.638;2024-01-15T00:46:25;96949.50;;;-0.40;78.84
10464;BME280;5279;42.048;24.638;2024-01-15T00:48:52;96947.63;;;-0.38;79.60
10464;BME280;5279;42.048;24.638;2024-01-15T00:51:19;96945.38;;;-0.30;78.95
10464;BME280;5279;42.048;24.638;2024-01-15T00:53:45;96949.28;;;-0.23;79.38
10464;BME280;5279;42.048;24.638;2024-01-15T00:56:13;96942.59;;;-0.27;79.85
10464;BME280;5279;42.048;24.638;2024-01-15T00:58:40;96946.88;;;-0.26;80.15
10464;BME280;5279;42.048;24.638;2024-01-15T01:01:07;96945.00;;;-0.24;80.50
10464;BME280;5279;42.048;24.638;2024-01-15T01:03:33;96941.47;;;-0.23;79.64
10464;BME280;5279;42.048;24.638;2024-01-15T01:06:00;96940.19;;;-0.16;78.68
10464;BME280;5279;42.048;24.638;2024-01-15T01:08:27;96943.31;;;-0.11;78.18
10464;BME280;5279;42.048;24.638;2024-01-15T01:10:55;96950.63;;;-0.03;77.32
10464;BME280;5279;42.048;24.638;2024-01-15T01:13:24;96945.72;;;-0.08;77.08
10464;BME280;5279;42.048;24.638;2024-01-15T01:15:52;96939.03;;;-0.12;77.95
10464;BME280;5279;42.048;24.638;2024-01-15T01:18:18;96928.44;;;-0.09;77.80
10464;BME280;5279;42.048;24.638;2024-01-15T01:20:46;96928.03;;;-0.03;77.27
10464;BME280;5279;42.048;24.638;2024-01-15T01:23:13;96933.91;;;0.01;77.88
10464;BME280;5279;42.048;24.638;2024-01-15T01:25:40;96921.75;;;-0.13;78.53
10464;BME280;5279;42.048;24.638;2024-01-15T01:28:07;96926.50;;;-0.33;78.11
10464;BME280;5279;42.048;24.638;2024-01-15T01:30:36;96913.56;;;-0.21;78.01
10464;BME280;5279;42.048;24.638;2024-01-15T01:33:03;96918.59;;;-0.18;79.08
10464;BME280;5279;42.048;24.638;2024-01-15T01:35:29;96915.78;;;-0.15;79.46
10464;BME280;5279;42.048;24.638;2024-01-15T01:37:56;96915.13;;;-0.04;78.82
10464;BME280;5279;42.048;24.638;2024-01-15T01:40:23;96912.22;;;0.00;77.34
10464;BME280;5279;42.048;24.638;2024-01-15T01:42:49;96908.31;;;0.08;76.22
10464;BME280;5279;42.048;24.638;2024-01-15T01:45:16;96910.00;;;0.09;75.74
10464;BME280;5279;42.048;24.638;2024-01-15T01:47:44;96911.44;;;0.13;75.42
10464;BME280;5279;42.048;24.638;2024-01-15T01:50:12;96919.25;;;0.13;76.83
10464;BME280;5279;42.048;24.638;2024-01-15T01:52:39;96912.09;;;0.16;76.35
10464;BME280;5279;42.048;24.638;2024-01-15T01:55:09;96916.25;;;0.19;75.69
10464;BME280;5279;42.048;24.638;2024-01-15T01:57:40;96914.63;;;0.18;75.97
10464;BME280;5279;42.048;24.638;2024-01-15T02:00:08;96912.66;;;0.21;75.54
10464;BME280;5279;42.048;24.638;2024-01-15T02:02:35;96906.03;;;0.16;75.80
10464;BME280;5279;42.048;24.638;2024-01-15T02:05:05;96901.47;;;0.19;74.45
10464;BME280;5279;42.048;24.638;2024-01-15T02:07:37;96898.81;;;-0.20;76.93
10464;BME280;5279;42.048;24.638;2024-01-15T02:10:04;96902.59;;;-0.12;76.25
10464;BME280;5279;42.048;24.638;2024-01-15T02:12:31;96897.38;;;-0.12;75.50
10464;BME280;5279;42.048;24.638;2024-01-15T02:14:58;96906.88;;;-0.11;75.79
10464;BME280;5279;42.048;24.638;2024-01-15T02:17:25;96914.03;;;-0.14;75.81
10464;BME280;5279;42.048;24.638;2024-01-15T02:19:52;96905.94;;;-0.10;75.79
10464;BME280;5279;42.048;24.638;2024-01-15T02:22:20;96908.91;;;-0.02;75.00
10464;BME280;5279;42.048;24.638;2024-01-15T02:24:48;96904.41;;;0.00;74.72
10464;BME280;5279;42.048;24.638;2024-01-15T02:27:15;96898.47;;;-0.02;75.12
10464;BME280;5279;42.048;24.638;2024-01-15T02:29:43;96900.53;;;-0.07;75.23
10464;BME280;5279;42.048;24.638;2024-01-15T02:32:10;96895.97;;;-0.03;75.46
10464;BME280;5279;42.048;24.638;2024-01-15T02:34:36;96901.47;;;-0.08;76.02
10464;BME280;5279;42.048;24.638;2024-01-15T02:37:12;96901.50;;;-0.22;76.45
10464;BME280;5279;42.048;24.638;2024-01-15T02:39:40;96900.06;;;-0.40;78.57
10464;BME280;5279;42.048;24.638;2024-01-15T02:42:08;96904.50;;;-0.28;76.79
10464;BME280;5279;42.048;24.638;2024-01-15T02:44:35;96905.81;;;-0.49;78.58
10464;BME280;5279;42.048;24.638;2024-01-15T02:47:02;96905.06;;;-0.51;78.74
10464;BME280;5279;42.048;24.638;2024-01-15T02:49:29;96909.34;;;-0.50;78.23
10464;BME280;5279;42.048;24.638;2024-01-15T02:51:57;96913.06;;;-0.40;78.35
10464;BME280;5279;42.048;24.638;2024-01-15T02:54:24;96907.00;;;-0.55;78.12
10464;BME280;5279;42.048;24.638;2024-01-15T02:56:51;96898.41;;;-0.55;77.60
10464;BME280;5279;42.048;24.638;2024-01-15T02:59:19;96900.44;;;-0.60;77.47
10464;BME280;5279;42.048;24.638;2024-01-15T03:01:45;96901.63;;;-0.66;78.21
10464;BME280;5279;42.048;24.638;2024-01-15T03:04:12;96910.38;;;-0.67;78.33
10464;BME280;5279;42.048;24.638;2024-01-15T03:06:39;96913.72;;;-0.93;79.36
10464;BME280;5279;42.048;24.638;2024-01-15T03:09:06;96902.56;;;-0.81;80.44
10464;BME280;5279;42.048;24.638;2024-01-15T03:11:37;96899.53;;;-0.73;80.03
10464;BME280;5279;42.048;24.638;2024-01-15T03:14:03;96910.00;;;-0.61;79.72
10464;BME280;5279;42.048;24.638;2024-01-15T03:16:31;96902.19;;;-0.61;80.43
10464;BME280;5279;42.048;24.638;2024-01-15T03:19:00;96901.16;;;-0.72;80.38
10464;BME280;5279;42.048;24.638;2024-01-15T03:21:26;96904.88;;;-1.04;82.56
10464;BME280;5279;42.048;24.638;2024-01-15T03:23:53;96909.34;;;-0.92;82.36
10464;BME280;5279;42.048;24.638;2024-01-15T03:26:20;96886.31;;;-0.84;82.54
10464;BME280;5279;42.048;24.638;2024-01-15T03:29:05;96893.56;;;-0.75;82.47
10464;BME280;5279;42.048;24.638;2024-01-15T03:31:34;96887.63;;;-0.77;81.96
10464;BME280;5279;42.048;24.638;2024-01-15T03:34:00;96889.31;;;-0.76;80.93
10464;BME280;5279;42.048;24.638;2024-01-15T03:36:27;96885.94;;;-0.78;80.85
10464;BME280;5279;42.048;24.638;2024-01-15T03:38:54;96888.19;;;-0.86;80.64
10464;BME280;5279;42.048;24.638;2024-01-15T03:41:20;96890.47;;;-0.82;80.75
10464;BME280;5279;42.048;24.638;2024-01-15T03:43:47;96889.31;;;-0.76;80.21
10464;BME280;5279;42.048;24.638;2024-01-15T03:46:14;96889.50;;;-0.79;80.61
10464;BME280;5279;42.048;24.638;2024-01-15T03:48:42;96887.63;;;-0.77;81.19
10464;BME280;5279;42.048;24.638;2024-01-15T03:51:09;96887.25;;;-0.71;81.65
10464;BME280;5279;42.048;24.638;2024-01-15T03:53:36;96886.69;;;-0.62;81.48
10464;BME280;5279;42.048;24.638;2024-01-15T03:56:03;96880.00;;;-0.66;80.73
10464;BME280;5279;42.048;24.638;2024-01-15T03:58:29;96884.47;;;-0.68;81.58
10464;BME280;5279;42.048;24.638;2024-01-15T04:00:56;96885.19;;;-0.66;81.87
10464;BME280;5279;42.048;24.638;2024-01-15T04:03:23;96882.31;;;-0.62;81.12
10464;BME280;5279;42.048;24.638;2024-01-15T04:05:51;96889.00;;;-0.58;78.87
10464;BME280;5279;42.048;24.638;2024-01-15T04:08:18;96880.66;;;-0.63;79.79
10464;BME280;5279;42.048;24.638;2024-01-15T04:10:45;96887.59;;;-0.63;80.56
10464;BME280;5279;42.048;24.638;2024-01-15T04:13:12;96879.81;;;-0.63;81.36
10464;BME280;5279;42.048;24.638;2024-01-15T04:15:39;96878.22;;;-0.66;81.99
10464;BME280;5279;42.048;24.638;2024-01-15T04:18:06;96874.78;;;-0.66;82.01
10464;BME280;5279;42.048;24.638;2024-01-15T04:20:32;96874.97;;;-0.69;82.31
10464;BME280;5279;42.048;24.638;2024-01-15T04:23:00;96882.06;;;-0.85;85.07
10464;BME280;5279;42.048;24.638;2024-01-15T04:25:32;96884.84;;;-0.88;86.19
10464;BME280;5279;42.048;24.638;2024-01-15T04:27:59;96890.41;;;-0.94;83.88
10464;BME280;5279;42.048;24.638;2024-01-15T04:30:26;96884.09;;;-1.04;83.95
10464;BME280;5279;42.048;24.638;2024-01-15T04:32:52;96873.88;;;-1.07;85.08
10464;BME280;5279;42.048;24.638;2024-01-15T04:35:19;96862.69;;;-1.24;84.93
10464;BME280;5279;42.048;24.638;2024-01-15T04:37:46;96869.19;;;-1.31;85.24
10464;BME280;5279;42.048;24.638;2024-01-15T04:40:14;96866.56;;;-1.31;85.23
10464;BME280;5279;42.048;24.638;2024-01-15T04:42:41;96856.53;;;-1.37;84.77
10464;BME280;5279;42.048;24.638;2024-01-15T04:45:08;96848.25;;;-1.28;85.39
10464;BME280;5279;42.048;24.638;2024-01-15T04:47:35;96844.06;;;-1.16;85.71
10464;BME280;5279;42.048;24.638;2024-01-15T04:50:03;96836.16;;;-1.15;85.22
10464;BME280;5279;42.048;24.638;2024-01-15T04:52:30;96836.81;;;-1.11;85.60
10464;BME280;5279;42.048;24.638;2024-01-15T04:54:56;96841.38;;;-1.15;84.25
10464;BME280;5279;42.048;24.638;2024-01-15T04:57:25;96834.69;;;-1.04;82.74
10464;BME280;5279;42.048;24.638;2024-01-15T04:59:51;96838.03;;;-1.17;83.05
10464;BME280;5279;42.048;24.638;2024-01-15T05:02:27;96829.19;;;-1.00;81.39
10464;BME280;5279;42.048;24.638;2024-01-15T05:04:54;96822.81;;;-0.94;80.70
10464;BME280;5279;42.048;24.638;2024-01-15T05:07:20;96824.66;;;-0.82;80.26
10464;BME280;5279;42.048;24.638;2024-01-15T05:09:47;96825.41;;;-0.80;80.02
10464;BME280;5279;42.048;24.638;2024-01-15T05:12:14;96833.56;;;-0.72;78.65
10464;BME280;5279;42.048;24.638;2024-01-15T05:14:42;96828.44;;;-0.60;77.59
10464;BME280;5279;42.048;24.638;2024-01-15T05:17:09;96822.19;;;-0.57;78.37
10464;BME280;5279;42.048;24.638;2024-01-15T05:19:35;96813.09;;;-0.50;78.33
10464;BME280;5279;42.048;24.638;2024-01-15T05:22:02;96818.66;;;-0.56;79.70
10464;BME280;5279;42.048;24.638;2024-01-15T05:24:29;96806.63;;;-0.71;80.33
10464;BME280;5279;42.048;24.638;2024-01-15T05:26:56;96797.53;;;-0.78;81.02
10464;BME280;5279;42.048;24.638;2024-01-15T05:29:22;96791.28;;;-0.76;81.25
10464;BME280;5279;42.048;24.638;2024-01-15T05:31:50;96798.66;;;-0.96;83.40
10464;BME280;5279;42.048;24.638;2024-01-15T05:34:17;96791.44;;;-0.91;83.12
10464;BME280;5279;42.048;24.638;2024-01-15T05:36:44;96796.06;;;-0.96;83.67
10464;BME280;5279;42.048;24.638;2024-01-15T05:39:13;96812.97;;;-1.03;84.15
10464;BME280;5279;42.048;24.638;2024-01-15T05:41:39;96803.75;;;-1.09;84.32
10464;BME280;5279;42.048;24.638;2024-01-15T05:44:06;96812.13;;;-1.04;83.93
10464;BME280;5279;42.048;24.638;2024-01-15T05:46:33;96823.94;;;-0.98;83.36
10464;BME280;5279;42.048;24.638;2024-01-15T05:49:01;96816.13;;;-0.98;83.58
10464;BME280;5279;42.048;24.638;2024-01-15T05:51:28;96827.63;;;-0.88;83.97
10464;BME280;5279;42.048;24.638;2024-01-15T05:53:54;96836.19;;;-0.86;83.91
10464;BME280;5279;42.048;24.638;2024-01-15T05:56:21;96837.66;;;-0.82;83.35
10464;BME280;5279;42.048;24.638;2024-01-15T05:58:50;96832.34;;;-0.81;82.62
10464;BME280;5279;42.048;24.638;2024-01-15T06:01:16;96833.28;;;-0.96;83.59
10464;BME280;5279;42.048;24.638;2024-01-15T06:03:43;96830.41;;;-1.05;85.14
10464;BME280;5279;42.048;24.638;2024-01-15T06:06:11;96823.81;;;-1.11;85.29
10464;BME280;5279;42.048;24.638;2024-01-15T06:08:39;96824.50;;;-1.22;85.93
10464;BME280;5279;42.048;24.638;2024-01-15T06:11:06;96821.13;;;-1.24;85.94
10464;BME280;5279;42.048;24.638;2024-01-15T06:13:33;96822.06;;;-1.11;85.92
10464;BME280;5279;42.048;24.638;2024-01-15T06:16:00;96818.00;;;-1.00;87.38
10464;BME280;5279;42.048;24.638;2024-01-15T06:18:26;96817.63;;;-0.94;88.57
10464;BME280;5279;42.048;24.638;2024-01-15T06:20:53;96825.84;;;-0.74;88.48
10464;BME280;5279;42.048;24.638;2024-01-15T06:23:21;96822.38;;;-0.60;88.52
10464;BME280;5279;42.048;24.638;2024-01-15T06:25:55;96832.88;;;-0.47;87.11
10464;BME280;5279;42.048;24.638;2024-01-15T06:28:22;96827.22;;;-0.54;81.91
10464;BME280;5279;42.048;24.638;2024-01-15T06:30:48;96836.88;;;-0.56;81.12
10464;BME280;5279;42.048;24.638;2024-01-15T06:33:15;96848.22;;;-0.57;80.98
10464;BME280;5279;42.048;24.638;2024-01-15T06:35:42;96853.03;;;-0.51;81.41
10464;BME280;5279;42.048;24.638;2024-01-15T06:38:08;96852.13;;;-0.78;82.80
10464;BME280;5279;42.048;24.638;2024-01-15T06:40:37;96858.25;;;-0.65;82.87
10464;BME280;5279;42.048;24.638;2024-01-15T06:43:05;96844.97;;;-0.61;82.90
10464;BME280;5279;42.048;24.638;2024-01-15T06:45:31;96841.41;;;-0.45;83.37
10464;BME280;5279;42.048;24.638;2024-01-15T06:47:58;96836.25;;;-0.33;84.42
10464;BME280;5279;42.048;24.638;2024-01-15T06:50:25;96835.38;;;-0.46;84.86
10464;BME280;5279;42.048;24.638;2024-01-15T06:52:51;96842.41;;;-0.34;84.45
10464;BME280;5279;42.048;24.638;2024-01-15T06:55:18;96846.28;;;-0.27;84.34
10464;BME280;5279;42.048;24.638;2024-01-15T06:57:46;96832.50;;;-0.15;84.59
10464;BME280;5279;42.048;24.638;2024-01-15T07:00:14;96835.38;;;0.08;84.60
10464;BME280;5279;42.048;24.638;2024-01-15T07:02:41;96827.31;;;0.25;84.41
10464;BME280;5279;42.048;24.638;2024-01-15T07:05:08;96832.78;;;0.47;81.99
10464;BME280;5279;42.048;24.638;2024-01-15T07:07:35;96827.38;;;0.63;80.27
10464;BME280;5279;42.048;24.638;2024-01-15T07:10:01;96812.25;;;0.80;79.51
10464;BME280;5279;42.048;24.638;2024-01-15T07:12:29;96815.28;;;0.99;77.47
10464;BME280;5279;42.048;24.638;2024-01-15T07:14:57;96800.44;;;1.13;75.19
10464;BME280;5279;42.048;24.638;2024-01-15T07:17:23;96800.63;;;1.22;76.25
10464;BME280;5279;42.048;24.638;2024-01-15T07:19:53;96798.31;;;1.43;76.57
10464;BME280;5279;42.048;24.638;2024-01-15T07:22:20;96810.50;;;1.55;74.01
10464;BME280;5279;42.048;24.638;2024-01-15T07:24:46;96816.81;;;1.76;73.09
10464;BME280;5279;42.048;24.638;2024-01-15T07:27:13;96812.78;;;1.83;73.30
10464;BME280;5279;42.048;24.638;2024-01-15T07:29:40;96819.59;;;2.09;70.71
10464;BME280;5279;42.048;24.638;2024-01-15T07:32:10;96813.88;;;2.39;72.42
10464;BME280;5279;42.048;24.638;2024-01-15T07:34:37;96829.13;;;2.56;73.95
10464;BME280;5279;42.048;24.638;2024-01-15T07:37:04;96827.88;;;2.73;72.60
10464;BME280;5279;42.048;24.638;2024-01-15T07:39:31;96830.28;;;2.98;68.46
10464;BME280;5279;42.048;24.638;2024-01-15T07:41:57;96823.66;;;3.16;68.09
10464;BME280;5279;42.048;24.638;2024-01-15T07:44:24;96835.81;;;3.40;64.99
10464;BME280;5279;42.048;24.638;2024-01-15T07:46:52;96825.41;;;3.71;63.90
10464;BME280;5279;42.048;24.638;2024-01-15T07:49:20;96835.22;;;4.12;65.26
10464;BME280;5279;42.048;24.638;2024-01-15T07:51:49;96832.13;;;4.39;62.76
10464;BME280;5279;42.048;24.638;2024-01-15T07:54:15;96819.94;;;4.70;63.06
10464;BME280;5279;42.048;24.638;2024-01-15T07:56:55;96832.44;;;4.98;61.49
10464;BME280;5279;42.048;24.638;2024-01-15T07:59:22;96833.00;;;5.22;60.27
10464;BME280;5279;42.048;24.638;2024-01-15T08:01:49;96840.66;;;5.65;58.70
10464;BME280;5279;42.048;24.638;2024-01-15T08:04:16;96847.41;;;5.98;53.54
10464;BME280;5279;42.048;24.638;2024-01-15T08:06:44;96859.91;;;6.25;53.44
10464;BME280;5279;42.048;24.638;2024-01-15T08:09:11;96853.03;;;6.62;53.69
10464;BME280;5279;42.048;24.638;2024-01-15T08:11:39;96847.34;;;6.86;50.50
10464;BME280;5279;42.048;24.638;2024-01-15T08:14:08;96858.25;;;7.10;50.40
10464;BME280;5279;42.048;24.638;2024-01-15T08:16:35;96842.53;;;7.37;50.77
10464;BME280;5279;42.048;24.638;2024-01-15T08:19:01;96855.88;;;7.63;49.94
10464;BME280;5279;42.048;24.638;2024-01-15T08:21:28;96854.75;;;7.75;48.63
10464;BME280;5279;42.048;24.638;2024-01-15T08:23:57;96867.28;;;7.91;47.93
10464;BME280;5279;42.048;24.638;2024-01-15T08:26:24;96869.09;;;7.90;47.61
10464;BME280;5279;42.048;24.638;2024-01-15T08:28:51;96865.19;;;7.94;46.81
10464;BME280;5279;42.048;24.638;2024-01-15T08:31:17;96864.50;;;7.65;48.58
10464;BME280;5279;42.048;24.638;2024-01-15T08:33:44;96862.38;;;7.22;53.20
10464;BME280;5279;42.048;24.638;2024-01-15T08:36:11;96866.88;;;6.74;54.20
10464;BME280;5279;42.048;24.638;2024-01-15T08:38:38;96859.97;;;6.53;54.92
10464;BME280;5279;42.048;24.638;2024-01-15T08:41:06;96851.34;;;6.51;54.81
10464;BME280;5279;42.048;24.638;2024-01-15T08:43:34;96842.22;;;6.46;55.04
10464;BME280;5279;42.048;24.638;2024-01-15T08:46:00;96845.25;;;6.51;55.14
10464;BME280;5279;42.048;24.638;2024-01-15T08:48:28;96822.81;;;6.66;55.92
10464;BME280;5279;42.048;24.638;2024-01-15T08:50:54;96814.13;;;6.66;56.57
10464;BME280;5279;42.048;24.638;2024-01-15T08:53:22;96813.69;;;6.60;55.68
10464;BME280;5279;42.048;24.638;2024-01-15T08:55:49;96814.22;;;6.07;57.57
10464;BME280;5279;42.048;24.638;2024-01-15T08:58:17;96803.59;;;5.78;59.65
10464;BME280;5279;42.048;24.638;2024-01-15T09:00:44;96788.91;;;5.75;59.61
10464;BME280;5279;42.048;24.638;2024-01-15T09:03:11;96788.34;;;5.72;60.17
10464;BME280;5279;42.048;24.638;2024-01-15T09:05:37;96782.13;;;5.63;60.98
10464;BME280;5279;42.048;24.638;2024-01-15T09:08:06;96788.88;;;5.66;60.94
10464;BME280;5279;42.048;24.638;2024-01-15T09:10:32;96794.91;;;5.77;61.79
10464;BME280;5279;42.048;24.638;2024-01-15T09:12:59;96793.38;;;5.84;61.80
10464;BME280;5279;42.048;24.638;2024-01-15T09:15:27;96785.41;;;5.95;61.35
10464;BME280;5279;42.048;24.638;2024-01-15T09:17:54;96790.28;;;6.10;61.14
10464;BME280;5279;42.048;24.638;2024-01-15T09:20:22;96795.53;;;6.19;61.42
10464;BME280;5279;42.048;24.638;2024-01-15T09:22:50;96800.63;;;6.11;61.16
10464;BME280;5279;42.048;24.638;2024-01-15T09:25:17;96799.81;;;6.01;60.85
10464;BME280;5279;42.048;24.638;2024-01-15T09:27:44;96789.84;;;6.14;60.64
10464;BME280;5279;42.048;24.638;2024-01-15T09:30:12;96779.91;;;6.46;59.42
10464;BME280;5279;42.048;24.638;2024-01-15T09:32:40;96788.03;;;6.82;57.00
10464;BME280;5279;42.048;24.638;2024-01-15T09:35:07;96781.59;;;7.03;56.44
10464;BME280;5279;42.048;24.638;2024-01-15T09:37:34;96776.41;;;7.21;55.36
10464;BME280;5279;42.048;24.638;2024-01-15T09:40:01;96764.84;;;6.95;55.53
10464;BME280;5279;42.048;24.638;2024-01-15T09:42:29;96766.44;;;7.15;55.53
10464;BME280;5279;42.048;24.638;2024-01-15T09:44:56;96771.28;;;7.29;55.44
10464;BME280;5279;42.048;24.638;2024-01-15T09:47:24;96759.41;;;7.43;54.65
10464;BME280;5279;42.048;24.638;2024-01-15T09:49:53;96752.38;;;7.61;55.08
10464;BME280;5279;42.048;24.638;2024-01-15T09:52:20;96746.53;;;7.85;54.36
10464;BME280;5279;42.048;24.638;2024-01-15T09:54:48;96738.97;;;8.17;53.96
10464;BME280;5279;42.048;24.638;2024-01-15T09:57:16;96730.97;;;8.88;52.69
10464;BME280;5279;42.048;24.638;2024-01-15T09:59:43;96729.13;;;9.81;49.46
10464;BME280;5279;42.048;24.638;2024-01-15T10:02:13;96709.63;;;9.99;47.74
10464;BME280;5279;42.048;24.638;2024-01-15T10:04:44;96724.97;;;9.79;48.48
10464;BME280;5279;42.048;24.638;2024-01-15T10:07:15;96715.56;;;9.84;48.94
10464;BME280;5279;42.048;24.638;2024-01-15T10:09:42;96710.25;;;9.76;48.89
10464;BME280;5279;42.048;24.638;2024-01-15T10:12:10;96720.72;;;9.44;48.90
10464;BME280;5279;42.048;24.638;2024-01-15T10:14:36;96711.75;;;9.03;49.79
10464;BME280;5279;42.048;24.638;2024-01-15T10:17:12;96710.94;;;8.77;51.01
10464;BME280;5279;42.048;24.638;2024-01-15T10:19:39;96707.81;;;8.56;51.93
10464;BME280;5279;42.048;24.638;2024-01-15T10:22:07;96711.59;;;8.53;52.29
10464;BME280;5279;42.048;24.638;2024-01-15T10:24:36;96710.81;;;8.61;52.17
10464;BME280;5279;42.048;24.638;2024-01-15T10:27:06;96698.19;;;8.72;52.09
10464;BME280;5279;42.048;24.638;2024-01-15T10:29:33;96685.44;;;8.94;51.08
10464;BME280;5279;42.048;24.638;2024-01-15T10:32:00;96682.63;;;9.21;51.00
10464;BME280;5279;42.048;24.638;2024-01-15T10:34:28;96667.44;;;9.89;49.52
10464;BME280;5279;42.048;24.638;2024-01-15T10:36:54;96656.88;;;11.33;46.84
10464;BME280;5279;42.048;24.638;2024-01-15T10:39:21;96650.75;;;13.06;41.36
10464;BME280;5279;42.048;24.638;2024-01-15T10:41:50;96622.72;;;14.74;38.47
10464;BME280;5279;42.048;24.638;2024-01-15T10:44:17;96613.72;;;16.24;35.09
10464;BME280;5279;42.048;24.638;2024-01-15T10:46:44;96610.91;;;17.62;30.95
10464;BME280;5279;42.048;24.638;2024-01-15T10:49:12;96590.91;;;19.26;29.02
10464;BME280;5279;42.048;24.638;2024-01-15T10:51:41;96590.59;;;20.83;26.09
10464;BME280;5279;42.048;24.638;2024-01-15T10:54:09;96590.19;;;21.09;25.01
10464;BME280;5279;42.048;24.638;2024-01-15T10:56:37;96574.19;;;20.20;25.30
10464;BME280;5279;42.048;24.638;2024-01-15T10:59:05;96569.97;;;19.53;25.13
10464;BME280;5279;42.048;24.638;2024-01-15T11:01:33;96568.94;;;18.19;27.18
10464;BME280;5279;42.048;24.638;2024-01-15T11:04:00;96578.59;;;16.73;28.05
10464;BME280;5279;42.048;24.638;2024-01-15T11:06:28;96574.34;;;15.53;29.83
10464;BME280;5279;42.048;24.638;2024-01-15T11:08:55;96574.16;;;14.79;30.79
10464;BME280;5279;42.048;24.638;2024-01-15T11:11:22;96572.09;;;13.83;31.68
10464;BME280;5279;42.048;24.638;2024-01-15T11:13:48;96579.34;;;13.18;32.67
10464;BME280;5279;42.048;24.638;2024-01-15T11:16:18;96577.03;;;13.00;33.23
10464;BME280;5279;42.048;24.638;2024-01-15T11:19:02;96578.41;;;13.10;33.21
10464;BME280;5279;42.048;24.638;2024-01-15T11:21:31;96582.44;;;13.36;34.22
10464;BME280;5279;42.048;24.638;2024-01-15T11:23:59;96568.72;;;14.38;33.93
10464;BME280;5279;42.048;24.638;2024-01-15T11:26:31;96565.31;;;15.67;32.55
10464;BME280;5279;42.048;24.638;2024-01-15T11:29:02;96564.72;;;17.67;29.64
10464;BME280;5279;42.048;24.638;2024-01-15T11:31:57;96554.19;;;19.38;26.95
10464;BME280;5279;42.048;24.638;2024-01-15T11:34:56;96548.56;;;20.06;26.19
10464;BME280;5279;42.048;24.638;2024-01-15T11:39:55;96548.44;;;17.17;28.81
10464;BME280;5279;42.048;24.638;2024-01-15T11:42:23;96540.31;;;16.33;29.76
10464;BME280;5279;42.048;24.638;2024-01-15T11:44:50;96539.34;;;15.35;31.21
10464;BME280;5279;42.048;24.638;2024-01-15T11:47:48;96529.59;;;14.73;32.43
10464;BME280;5279;42.048;24.638;2024-01-15T11:50:24;96528.69;;;14.32;33.30
10464;BME280;5279;42.048;24.638;2024-01-15T11:52:59;96529.84;;;14.01;33.99
10464;BME280;5279;42.048;24.638;2024-01-15T11:55:27;96531.25;;;13.34;35.27
10464;BME280;5279;42.048;24.638;2024-01-15T11:57:55;96527.16;;;12.87;36.09
10464;BME280;5279;42.048;24.638;2024-01-15T12:00:24;96537.16;;;12.56;36.60
10464;BME280;5279;42.048;24.638;2024-01-15T12:02:52;96549.25;;;12.44;36.78
10464;BME280;5279;42.048;24.638;2024-01-15T12:05:55;96546.91;;;12.12;37.30
10464;BME280;5279;42.048;24.638;2024-01-15T12:08:24;96541.94;;;11.71;38.16
10464;BME280;5279;42.048;24.638;2024-01-15T12:10:52;96539.66;;;11.07;39.55
10464;BME280;5279;42.048;24.638;2024-01-15T12:13:20;96537.50;;;10.71;40.26
10464;BME280;5279;42.048;24.638;2024-01-15T12:15:47;96533.66;;;10.19;41.38
10464;BME280;5279;42.048;24.638;2024-01-15T12:18:16;96541.94;;;9.83;42.19
10464;BME280;5279;42.048;24.638;2024-01-15T12:20:45;96533.16;;;9.59;43.17
10464;BME280;5279;42.048;24.638;2024-01-15T12:23:13;96539.03;;;9.04;44.76
10464;BME280;5279;42.048;24.638;2024-01-15T12:25:40;96536.91;;;9.08;45.26
10464;BME280;5279;42.048;24.638;2024-01-15T12:28:10;96535.28;;;8.73;45.43
10464;BME280;5279;42.048;24.638;2024-01-15T12:30:37;96527.25;;;8.49;46.42
10464;BME280;5279;42.048;24.638;2024-01-15T12:33:04;96520.41;;;8.30;47.30
10464;BME280;5279;42.048;24.638;2024-01-15T12:35:33;96532.16;;;8.18;48.14
10464;BME280;5279;42.048;24.638;2024-01-15T12:38:00;96526.34;;;8.06;48.87
10464;BME280;5279;42.048;24.638;2024-01-15T12:40:28;96529.22;;;8.21;48.51
10464;BME280;5279;42.048;24.638;2024-01-15T12:42:55;96534.50;;;8.21;48.69
10464;BME280;5279;42.048;24.638;2024-01-15T12:45:22;96531.22;;;8.27;48.45
10464;BME280;5279;42.048;24.638;2024-01-15T12:47:48;96527.38;;;8.39;48.72
10464;BME280;5279;42.048;24.638;2024-01-15T12:50:16;96518.59;;;8.31;48.62
10464;BME280;5279;42.048;24.638;2024-01-15T12:52:44;96524.41;;;8.42;48.39
10464;BME280;5279;42.048;24.638;2024-01-15T12:55:11;96522.91;;;8.32;48.48
10464;BME280;5279;42.048;24.638;2024-01-15T12:57:38;96530.69;;;8.41;48.16
10464;BME280;5279;42.048;24.638;2024-01-15T13:00:06;96515.38;;;8.45;47.77
10464;BME280;5279;42.048;24.638;2024-01-15T13:02:37;96506.81;;;8.25;48.51
10464;BME280;5279;42.048;24.638;2024-01-15T13:05:04;96503.16;;;8.18;48.32
10464;BME280;5279;42.048;24.638;2024-01-15T13:07:32;96500.56;;;8.26;48.20
10464;BME280;5279;42.048;24.638;2024-01-15T13:10:00;96489.72;;;8.29;48.01
10464;BME280;5279;42.048;24.638;2024-01-15T13:12:28;96482.78;;;8.28;48.42